Time;durP1;ratioP1;P1;durP2;ratioP2;P2;SDS_P1;SDS_P2;PMS_P1;PMS_P2;Temp;Humidity;BMP_temperature;BMP_pressure;BME280_temperature;BME280_humidity;BME280_pressure;Samples;Min_cycle;Max_cycle;Signal;HPM_P1;HPM_P2
2022/11/18 00:00:12;;;;;;;8.53;6.13;;;;;;;3.41;89.09;100220.38;6098574;28;20232;-78
2022/11/18 00:03:33;;;;;;;7.73;5.67;;;;;;;3.38;89.11;100229.41;6097890;28;20263;-79
2022/11/18 00:06:54;;;;;;;7.37;5.63;;;;;;;3.46;89.03;100231.56;6087797;28;20657;-78
2022/11/18 00:10:16;;;;;;;8.83;4.97;;;;;;;3.30;88.96;100229.09;6094242;28;20232;-79
2022/11/18 00:17:17;;;;;;;6.17;5.07;;;;;;;3.24;89.62;100238.38;6096479;28;20228;-80
2022/11/18 00:20:40;;;;;;;6.70;5.40;;;;;;;3.25;89.83;100244.56;6087905;28;20251;-79
2022/11/18 00:24:01;;;;;;;6.03;5.00;;;;;;;3.30;89.66;100234.44;6111155;28;20322;-77
2022/11/18 00:27:22;;;;;;;8.93;5.73;;;;;;;3.29;89.55;100243.41;6100605;28;20569;-78
2022/11/18 00:30:43;;;;;;;9.10;6.43;;;;;;;3.24;89.46;100243.72;6113020;28;20658;-79
2022/11/18 00:34:06;;;;;;;8.40;6.13;;;;;;;3.30;89.69;100250.41;6090879;28;20313;-78
2022/11/18 00:37:29;;;;;;;6.27;5.17;;;;;;;3.23;89.46;100249.16;6098709;28;20243;-78
2022/11/18 00:40:58;;;;;;;5.47;4.37;;;;;;;3.20;89.72;100252.00;6111702;28;20235;-79
2022/11/18 00:44:20;;;;;;;6.43;5.80;;;;;;;3.29;89.41;100250.53;6117022;28;20311;-78
2022/11/18 00:47:44;;;;;;;6.50;5.93;;;;;;;3.29;89.43;100251.38;6107722;28;20310;-79
2022/11/18 00:51:15;;;;;;;6.27;4.90;;;;;;;3.28;89.04;100256.78;6112203;28;20244;-78
2022/11/18 00:54:36;;;;;;;6.43;5.83;;;;;;;3.18;89.39;100257.44;6110976;28;20326;-78
2022/11/18 00:57:58;;;;;;;6.53;5.97;;;;;;;3.10;89.23;100265.09;6094991;28;20228;-77
2022/11/18 01:01:22;;;;;;;8.37;6.27;;;;;;;3.18;89.25;100261.91;6107158;28;20232;-78
2022/11/18 01:04:46;;;;;;;9.10;5.43;;;;;;;3.13;89.17;100270.22;6098311;28;20236;-78
2022/11/18 01:08:13;;;;;;;8.97;6.53;;;;;;;3.15;89.40;100268.28;6086504;28;20517;-77
2022/11/18 01:15:13;;;;;;;9.30;5.73;;;;;;;3.14;89.06;100274.59;6113310;28;20236;-79
2022/11/18 01:18:34;;;;;;;10.13;6.67;;;;;;;3.09;89.23;100275.84;6087272;29;20239;-78
2022/11/18 01:22:01;;;;;;;10.17;6.37;;;;;;;2.96;88.85;100281.13;6096264;28;20242;-78
2022/11/18 01:25:25;;;;;;;8.70;5.40;;;;;;;2.94;89.47;100280.38;6118458;28;20312;-78
2022/11/18 01:28:46;;;;;;;6.77;4.93;;;;;;;2.78;89.54;100282.38;6110279;28;20259;-78
2022/11/18 01:32:07;;;;;;;6.57;5.67;;;;;;;2.84;89.00;100281.97;6097037;28;20297;-79
2022/11/18 01:35:28;;;;;;;7.30;5.33;;;;;;;2.95;89.11;100286.56;6118160;28;20251;-78
2022/11/18 01:38:50;;;;;;;8.03;5.47;;;;;;;2.98;88.76;100287.22;6107993;28;20239;-79
2022/11/18 01:42:17;;;;;;;7.10;6.00;;;;;;;2.85;88.64;100293.47;6100236;28;20235;-80
2022/11/18 01:45:41;;;;;;;8.73;6.40;;;;;;;2.88;88.73;100288.78;6112251;28;20319;-78
2022/11/18 01:49:08;;;;;;;7.90;5.63;;;;;;;2.80;89.06;100296.44;6096937;28;20259;-78
2022/11/18 01:52:30;;;;;;;7.53;5.73;;;;;;;2.74;89.17;100298.63;6102470;28;20239;-79
2022/11/18 01:55:54;;;;;;;10.47;6.23;;;;;;;2.75;89.08;100303.03;6113559;28;20315;-78
2022/11/18 01:59:20;;;;;;;8.30;6.30;;;;;;;2.67;89.57;100306.16;6092973;28;20235;-77
2022/11/18 02:02:42;;;;;;;9.17;6.10;;;;;;;2.71;89.25;100307.66;6097884;28;20247;-78
2022/11/18 02:06:06;;;;;;;8.07;6.60;;;;;;;2.56;89.69;100311.34;6106262;28;20235;-79
2022/11/18 02:09:27;;;;;;;8.30;6.23;;;;;;;2.62;89.65;100324.25;6094363;28;20236;-79
2022/11/18 02:12:49;;;;;;;9.80;6.67;;;;;;;2.61;89.63;100316.38;6104767;28;20235;-78
2022/11/18 02:16:17;;;;;;;9.07;6.40;;;;;;;2.71;89.02;100313.00;6106518;28;20247;-78
2022/11/18 02:20:00;;;;;;;8.80;7.77;;;;;;;2.79;88.42;100316.03;6105682;28;20231;-79
2022/11/18 02:23:53;;;;;;;9.07;6.30;;;;;;;2.89;88.41;100326.91;6106970;28;20550;-79
2022/11/18 02:27:46;;;;;;;9.93;6.10;;;;;;;2.96;88.14;100329.06;6096148;28;20235;-79
2022/11/18 02:31:14;;;;;;;12.13;7.00;;;;;;;2.90;88.41;100323.31;6111363;28;20229;-79
2022/11/18 02:34:41;;;;;;;8.97;6.47;;;;;;;2.90;88.19;100328.63;6081143;28;20231;-79
2022/11/18 02:38:07;;;;;;;9.73;7.97;;;;;;;2.75;88.76;100332.28;6108773;28;20242;-77
2022/11/18 02:41:31;;;;;;;9.93;6.57;;;;;;;2.88;88.26;100331.38;6109543;28;20861;-78
2022/11/18 02:44:58;;;;;;;14.23;8.53;;;;;;;2.82;88.71;100326.44;6104219;28;20344;-79
2022/11/18 02:48:24;;;;;;;12.43;7.23;;;;;;;2.84;88.66;100329.00;6107820;28;20226;-78
2022/11/18 02:51:47;;;;;;;8.87;6.23;;;;;;;2.73;89.00;100334.19;6103501;28;20228;-80
2022/11/18 02:55:12;;;;;;;8.60;6.90;;;;;;;2.88;88.27;100330.53;6103796;28;20335;-78
2022/11/18 02:58:33;;;;;;;6.83;5.90;;;;;;;2.76;87.97;100336.63;6105787;28;20231;-79
2022/11/18 03:01:54;;;;;;;11.17;8.07;;;;;;;2.65;88.55;100340.00;6091702;28;20232;-80
2022/11/18 03:05:23;;;;;;;6.50;4.87;;;;;;;2.70;88.36;100335.25;6114981;28;20233;-79
2022/11/18 03:08:51;;;;;;;7.40;6.40;;;;;;;2.68;88.51;100336.28;6104281;28;20234;-80
2022/11/18 03:12:19;;;;;;;9.20;6.50;;;;;;;2.80;88.06;100348.78;6097457;28;20236;-79
2022/11/18 03:15:49;;;;;;;10.30;7.30;;;;;;;2.76;88.11;100347.28;6108559;28;20255;-79
2022/11/18 03:19:18;;;;;;;11.10;7.50;;;;;;;2.77;88.56;100354.34;6105033;28;20255;-80
2022/11/18 03:22:47;;;;;;;10.67;7.80;;;;;;;2.79;88.50;100352.44;6092713;28;20554;-79
2022/11/18 03:26:14;;;;;;;7.73;6.00;;;;;;;2.81;88.59;100356.69;6097160;28;20223;-80
2022/11/18 03:29:39;;;;;;;12.00;7.80;;;;;;;2.84;88.00;100361.81;6106429;28;20232;-80
2022/11/18 03:33:05;;;;;;;6.53;5.40;;;;;;;2.70;88.17;100358.34;6095141;28;20246;-80
2022/11/18 03:36:31;;;;;;;10.70;6.43;;;;;;;2.60;88.53;100367.88;6100151;28;20240;-80
2022/11/18 03:39:59;;;;;;;8.67;6.70;;;;;;;2.67;88.82;100364.69;6103980;28;20232;-80
2022/11/18 03:43:23;;;;;;;7.83;6.33;;;;;;;2.67;88.94;100371.84;6108169;28;20238;-80
2022/11/18 03:46:47;;;;;;;9.10;6.93;;;;;;;2.69;88.68;100368.13;6106684;28;20268;-80
2022/11/18 03:50:14;;;;;;;10.60;7.50;;;;;;;2.69;88.76;100365.44;6101509;28;20541;-80
2022/11/18 03:53:39;;;;;;;14.83;8.10;;;;;;;2.66;88.40;100368.31;6110816;28;20232;-79
2022/11/18 03:57:08;;;;;;;11.43;8.67;;;;;;;2.74;88.22;100375.81;6090045;28;20240;-80
2022/11/18 04:00:33;;;;;;;10.00;7.27;;;;;;;2.74;88.09;100367.81;6096453;28;20239;-80
2022/11/18 04:03:56;;;;;;;11.03;7.40;;;;;;;2.66;88.05;100378.97;6103820;28;20722;-78
2022/11/18 04:07:24;;;;;;;10.17;7.30;;;;;;;2.61;88.12;100386.38;6092442;28;20220;-78
2022/11/18 04:10:50;;;;;;;8.37;7.37;;;;;;;2.64;88.40;100398.63;6114318;28;20231;-79
2022/11/18 04:14:15;;;;;;;11.43;7.50;;;;;;;2.69;88.19;100394.72;6111410;28;20315;-79
2022/11/18 04:17:36;;;;;;;10.53;6.57;;;;;;;2.64;87.71;100399.50;6098494;28;20572;-80
2022/11/18 04:20:56;;;;;;;9.13;7.13;;;;;;;2.51;87.98;100395.91;6108183;28;20228;-79
2022/11/18 04:24:17;;;;;;;8.03;6.27;;;;;;;2.63;87.93;100405.75;6114554;28;20547;-79
2022/11/18 04:27:39;;;;;;;10.27;6.27;;;;;;;2.65;87.36;100413.66;6102203;28;20298;-78
2022/11/18 04:31:01;;;;;;;9.10;6.03;;;;;;;2.60;87.69;100416.63;6113172;28;20243;-78
2022/11/18 04:34:21;;;;;;;7.27;6.07;;;;;;;2.60;87.44;100427.25;6114285;28;20232;-78
2022/11/18 04:37:43;;;;;;;7.90;6.10;;;;;;;2.65;87.08;100419.00;6104429;28;20593;-79
2022/11/18 04:41:04;;;;;;;9.33;6.33;;;;;;;2.62;87.40;100425.34;6113061;28;20274;-78
2022/11/18 04:44:26;;;;;;;7.93;6.03;;;;;;;2.40;87.43;100428.50;6114771;28;20239;-78
2022/11/18 04:47:49;;;;;;;8.57;6.00;;;;;;;2.50;87.44;100422.59;6097776;28;20247;-78
2022/11/18 04:51:10;;;;;;;9.27;7.10;;;;;;;2.56;86.96;100424.88;6106420;28;20232;-78
2022/11/18 04:54:31;;;;;;;10.03;7.20;;;;;;;2.61;87.00;100433.44;6101630;28;20227;-78
2022/11/18 04:57:52;;;;;;;10.73;7.50;;;;;;;2.61;86.87;100431.59;6121400;28;20673;-79
2022/11/18 05:01:13;;;;;;;13.90;10.57;;;;;;;2.47;87.01;100439.63;6102105;28;20228;-79
2022/11/18 05:04:35;;;;;;;8.83;7.00;;;;;;;2.53;87.69;100438.38;6112780;28;20597;-78
2022/11/18 05:07:56;;;;;;;8.93;6.10;;;;;;;2.58;87.06;100450.44;6107005;28;20289;-79
2022/11/18 05:14:55;;;;;;;9.27;6.77;;;;;;;2.57;87.11;100451.38;6106881;28;20231;-79
2022/11/18 05:18:16;;;;;;;8.07;7.27;;;;;;;2.61;86.62;100460.88;6107446;28;20322;-79
2022/11/18 05:21:39;;;;;;;9.37;6.90;;;;;;;2.46;86.16;100456.53;6106494;28;20255;-79
2022/11/18 05:25:00;;;;;;;10.53;7.50;;;;;;;2.51;86.53;100464.19;6097989;28;20232;-79
2022/11/18 05:28:21;;;;;;;7.23;6.47;;;;;;;2.45;86.56;100462.78;6102290;28;20236;-79
2022/11/18 05:31:42;;;;;;;9.20;6.27;;;;;;;2.42;87.12;100473.59;6106243;28;20232;-79
2022/11/18 05:35:03;;;;;;;9.50;6.93;;;;;;;2.52;86.63;100472.13;6104907;28;20235;-79
2022/11/18 05:38:25;;;;;;;8.30;5.67;;;;;;;2.52;86.41;100480.09;6106397;28;20231;-79
2022/11/18 05:45:25;;;;;;;9.20;7.17;;;;;;;2.28;86.48;100489.56;6100805;28;20244;-78
2022/11/18 05:48:45;;;;;;;9.00;6.87;;;;;;;2.30;86.96;100490.31;6099490;28;20236;-79
2022/11/18 05:52:07;;;;;;;9.00;7.10;;;;;;;2.41;86.58;100499.38;6093013;28;20232;-78
2022/11/18 05:55:35;;;;;;;11.10;8.90;;;;;;;2.32;86.49;100501.72;6097009;28;20236;-79
2022/11/18 05:58:56;;;;;;;7.57;6.63;;;;;;;2.21;87.54;100505.03;6102395;28;20227;-79
2022/11/18 06:02:21;;;;;;;7.80;6.70;;;;;;;2.34;87.22;100511.31;6090189;28;20930;-79
2022/11/18 06:05:42;;;;;;;8.17;6.63;;;;;;;2.17;86.98;100511.47;6111195;28;20239;-79
2022/11/18 06:09:06;;;;;;;13.03;7.80;;;;;;;2.20;87.31;100519.28;6113957;28;20492;-79
2022/11/18 06:12:31;;;;;;;8.23;6.97;;;;;;;2.15;86.50;100517.88;6096281;28;20235;-79
2022/11/18 06:15:52;;;;;;;9.17;7.10;;;;;;;2.24;87.01;100528.78;6093079;28;20272;-78
2022/11/18 06:19:13;;;;;;;10.37;7.37;;;;;;;2.12;87.38;100528.66;6108253;28;20236;-78
2022/11/18 06:22:35;;;;;;;8.00;6.60;;;;;;;2.16;87.29;100525.75;6101635;28;20239;-78
2022/11/18 06:25:56;;;;;;;11.90;7.13;;;;;;;2.19;87.54;100535.34;6114491;28;20499;-78
2022/11/18 06:29:21;;;;;;;9.50;6.67;;;;;;;2.16;87.24;100546.16;6109998;28;20227;-77
2022/11/18 06:32:42;;;;;;;9.10;6.80;;;;;;;2.12;88.13;100547.28;6079709;28;20239;-77
2022/11/18 06:36:03;;;;;;;9.03;6.73;;;;;;;2.07;87.96;100560.84;6103223;28;20235;-77
2022/11/18 06:39:25;;;;;;;9.87;6.40;;;;;;;2.60;91.56;100552.28;6089570;28;20228;-62
2022/11/18 06:50:05;;;;;;;12.67;9.47;;;;;;;2.33;86.56;100564.59;6093035;28;20251;-73
2022/11/18 06:53:26;;;;;;;11.83;10.60;;;;;;;2.24;86.20;100562.50;6081933;28;20237;-72
2022/11/18 06:56:47;;;;;;;12.10;7.73;;;;;;;2.16;86.70;100575.38;6089164;28;20239;-78
2022/11/18 07:00:09;;;;;;;10.13;7.97;;;;;;;2.29;86.70;100571.94;6096244;28;20240;-79
2022/11/18 07:03:31;;;;;;;11.00;8.77;;;;;;;2.29;86.52;100582.56;6087964;28;20254;-79
2022/11/18 07:06:52;;;;;;;10.53;7.63;;;;;;;2.05;86.56;100591.09;6083645;28;20229;-74
2022/11/18 07:10:12;;;;;;;10.83;8.20;;;;;;;2.11;87.28;100598.72;6090736;28;20686;-74
2022/11/18 07:13:34;;;;;;;10.53;8.07;;;;;;;2.17;86.61;100601.03;6087803;28;20231;-74
2022/11/18 07:16:55;;;;;;;9.60;8.33;;;;;;;2.05;86.28;100599.94;6070027;28;20247;-78
2022/11/18 07:20:17;;;;;;;8.00;7.20;;;;;;;2.12;86.12;100606.63;6091761;28;20228;-75
2022/11/18 07:23:39;;;;;;;9.73;7.50;;;;;;;2.17;85.73;100609.03;6085781;28;20263;-78
2022/11/18 07:27:00;;;;;;;11.67;7.87;;;;;;;2.14;85.66;100611.84;6075535;28;20243;-78
2022/11/18 07:30:21;;;;;;;9.07;6.83;;;;;;;1.96;86.04;100615.56;6098857;28;20274;-75
2022/11/18 07:33:43;;;;;;;9.33;6.20;;;;;;;1.90;85.76;100623.91;6094039;28;20239;-75
2022/11/18 07:37:05;;;;;;;10.00;7.70;;;;;;;2.10;85.04;100627.13;6083776;28;20236;-78
2022/11/18 07:40:29;;;;;;;9.67;7.40;;;;;;;2.10;84.84;100634.22;6104254;28;20588;-76
2022/11/18 07:43:51;;;;;;;10.17;7.67;;;;;;;2.12;84.62;100630.56;6083573;28;20237;-73
2022/11/18 07:47:12;;;;;;;10.10;7.43;;;;;;;2.19;84.09;100639.03;6092691;28;20224;-73
2022/11/18 07:50:33;;;;;;;12.37;7.80;;;;;;;2.17;84.06;100654.22;6088614;28;20273;-73
2022/11/18 07:53:55;;;;;;;7.23;6.03;;;;;;;3.36;95.06;100646.88;6085575;28;20235;-74
2022/11/18 07:57:16;;;;;;;8.10;6.80;;;;;;;3.85;91.54;100655.28;6083601;28;20326;-73
2022/11/18 08:00:37;;;;;;;9.20;8.30;;;;;;;2.86;82.94;100665.13;6094565;28;20239;-76
2022/11/18 08:04:04;;;;;;;8.40;6.93;;;;;;;2.50;83.17;100670.84;6092120;28;20853;-75
2022/11/18 08:07:28;;;;;;;7.97;6.87;;;;;;;2.25;82.98;100671.41;6096198;28;20696;-77
2022/11/18 08:10:50;;;;;;;6.93;6.33;;;;;;;2.29;82.08;100675.63;6099268;28;20622;-75
2022/11/18 08:14:11;;;;;;;8.03;6.27;;;;;;;2.38;81.72;100683.06;6100155;28;20243;-76
2022/11/18 08:17:32;;;;;;;6.97;5.30;;;;;;;2.29;81.43;100686.28;6094943;28;20232;-74
2022/11/18 08:20:53;;;;;;;8.47;6.00;;;;;;;2.37;80.85;100686.69;6105789;28;20705;-73
2022/11/18 08:24:14;;;;;;;7.93;6.30;;;;;;;2.36;80.92;100692.06;6103523;28;20358;-74
2022/11/18 08:27:36;;;;;;;8.77;6.80;;;;;;;2.29;80.92;100696.03;6096211;28;20247;-74
2022/11/18 08:30:57;;;;;;;9.37;7.07;;;;;;;2.24;80.44;100701.63;6099577;28;20232;-72
2022/11/18 08:34:18;;;;;;;9.33;8.43;;;;;;;2.23;80.22;100707.03;6105240;28;20243;-74
2022/11/18 08:37:39;;;;;;;7.70;6.37;;;;;;;1.93;80.32;100698.13;6098839;28;20312;-73
2022/11/18 08:41:00;;;;;;;6.63;5.30;;;;;;;2.10;80.11;100708.66;6110616;28;20263;-72
2022/11/18 08:44:22;;;;;;;8.73;6.57;;;;;;;2.19;79.00;100703.66;6103802;28;20339;-74
2022/11/18 08:47:44;;;;;;;9.20;6.67;;;;;;;2.20;79.79;100710.72;6091869;28;20251;-73
2022/11/18 08:51:05;;;;;;;6.87;5.67;;;;;;;2.19;79.76;100716.97;6103704;28;20595;-73
2022/11/18 08:54:26;;;;;;;9.23;6.20;;;;;;;2.35;79.82;100722.28;6106637;28;20845;-77
2022/11/18 08:57:46;;;;;;;10.10;6.63;;;;;;;2.40;79.05;100728.16;6106063;28;20251;-74
2022/11/18 09:01:09;;;;;;;9.60;6.33;;;;;;;2.43;79.08;100726.22;6098664;28;20240;-75
2022/11/18 09:04:30;;;;;;;6.30;5.57;;;;;;;2.56;79.23;100739.66;6101693;28;20569;-76
2022/11/18 09:07:50;;;;;;;10.57;6.97;;;;;;;2.49;78.50;100727.66;6099892;28;20235;-72
2022/11/18 09:11:13;;;;;;;6.90;5.17;;;;;;;2.42;77.81;100747.56;6108386;28;20237;-69
2022/11/18 09:14:34;;;;;;;6.67;5.50;;;;;;;2.26;77.48;100742.28;6108147;28;20614;-73
2022/11/18 09:17:58;;;;;;;7.67;4.60;;;;;;;2.28;77.37;100750.16;6102813;28;20248;-72
2022/11/18 09:21:19;;;;;;;7.20;5.27;;;;;;;2.46;77.40;100753.59;6110929;28;20578;-77
2022/11/18 09:24:39;;;;;;;6.10;5.33;;;;;;;2.38;76.68;100754.88;6103267;28;20520;-78
2022/11/18 09:28:00;;;;;;;7.97;6.23;;;;;;;2.40;76.79;100760.94;6097728;28;20867;-76
2022/11/18 09:31:21;;;;;;;6.83;5.50;;;;;;;2.47;76.38;100765.91;6069812;28;20323;-76
2022/11/18 09:34:43;;;;;;;4.87;4.47;;;;;;;2.50;75.95;100771.06;6110275;28;20228;-74
2022/11/18 09:38:04;;;;;;;8.53;5.70;;;;;;;2.46;76.06;100770.41;6107359;28;20232;-72
2022/11/18 09:41:44;;;;;;;8.33;6.33;;;;;;;2.47;76.14;100782.75;6102368;28;20229;-75
2022/11/18 09:45:19;;;;;;;9.10;5.93;;;;;;;2.69;75.84;100780.56;6111512;28;20650;-73
2022/11/18 09:52:24;;;;;;;5.37;4.83;;;;;;;2.69;75.38;100787.69;6085046;28;20715;-71
2022/11/18 09:55:45;;;;;;;7.87;5.40;;;;;;;2.66;74.87;100795.84;6103616;28;20404;-73
2022/11/18 09:59:06;;;;;;;6.90;5.30;;;;;;;2.77;75.29;100794.31;6118883;28;20247;-75
2022/11/18 10:02:34;;;;;;;6.43;5.23;;;;;;;2.82;75.12;100804.66;6097053;28;20236;-76
2022/11/18 10:06:03;;;;;;;5.50;3.97;;;;;;;2.73;74.14;100799.88;6103617;28;20232;-77
2022/11/18 10:09:34;;;;;;;5.53;4.30;;;;;;;2.72;74.30;100807.00;6119501;28;20226;-76
2022/11/18 10:13:00;;;;;;;6.50;5.20;;;;;;;2.77;74.22;100809.41;6111976;28;20633;-75
2022/11/18 10:16:32;;;;;;;12.70;7.93;;;;;;;2.82;74.61;100817.97;6100276;28;20236;-73
2022/11/18 10:19:56;;;;;;;8.77;6.63;;;;;;;2.94;73.89;100820.78;6100456;28;20239;-75
2022/11/18 10:23:22;;;;;;;5.03;4.53;;;;;;;2.85;73.37;100823.97;6104505;28;20251;-78
2022/11/18 10:26:45;;;;;;;8.17;5.97;;;;;;;2.93;73.13;100835.03;6109092;28;20300;-77
2022/11/18 10:30:12;;;;;;;5.83;4.90;;;;;;;2.95;72.93;100829.63;6112921;28;20239;-72
2022/11/18 10:33:34;;;;;;;7.20;5.23;;;;;;;3.19;72.31;100825.53;6098661;28;20236;-71
2022/11/18 10:37:00;;;;;;;6.47;4.93;;;;;;;3.30;72.31;100825.72;6103994;28;20263;-73
2022/11/18 10:40:27;;;;;;;8.10;5.83;;;;;;;3.49;72.21;100833.47;6120652;28;20550;-75
2022/11/18 10:43:52;;;;;;;6.17;5.37;;;;;;;3.47;71.29;100832.72;6108522;28;20239;-73
2022/11/18 10:47:25;;;;;;;4.87;4.13;;;;;;;3.35;71.34;100831.66;6098403;28;20244;-74
2022/11/18 10:50:49;;;;;;;5.73;4.20;;;;;;;3.20;71.44;100843.22;6099356;28;20243;-75
2022/11/18 10:54:15;;;;;;;5.77;3.97;;;;;;;3.31;70.97;100838.13;6103711;28;20232;-75
2022/11/18 10:57:42;;;;;;;4.97;4.30;;;;;;;3.03;70.65;100844.19;6100281;28;20633;-75
2022/11/18 11:01:14;;;;;;;4.53;4.10;;;;;;;3.35;71.50;100844.09;6100389;28;20232;-72
2022/11/18 11:04:38;;;;;;;5.27;3.67;;;;;;;3.33;70.06;100854.88;6115314;28;20666;-71
2022/11/18 11:08:04;;;;;;;5.43;4.07;;;;;;;3.36;70.27;100845.84;6103721;28;20837;-71
2022/11/18 11:11:27;;;;;;;14.30;4.53;;;;;;;3.45;70.26;100859.47;6121344;28;20262;-72
2022/11/18 11:14:53;;;;;;;3.57;3.13;;;;;;;3.35;69.76;100854.75;6094077;28;20241;-70
2022/11/18 11:21:59;;;;;;;4.80;3.17;;;;;;;4.43;86.29;100860.44;6093800;28;20224;-76
2022/11/18 11:25:27;;;;;;;5.43;3.83;;;;;;;3.71;70.14;100866.72;6101052;28;20247;-76
2022/11/18 11:28:57;;;;;;;4.10;3.07;;;;;;;3.34;69.00;100872.53;6087782;28;20231;-76
2022/11/18 11:32:29;;;;;;;4.37;3.80;;;;;;;3.12;68.35;100872.97;6090963;28;20256;-77
2022/11/18 11:36:09;;;;;;;5.63;4.17;;;;;;;3.08;68.16;100873.22;6108347;28;20555;-77
2022/11/18 11:39:45;;;;;;;6.00;3.00;;;;;;;3.07;68.33;100884.81;6104082;28;20231;-78
2022/11/18 11:43:26;;;;;;;7.83;3.90;;;;;;;3.23;67.92;100881.16;6108129;28;20614;-76
2022/11/18 11:50:53;;;;;;;5.47;3.70;;;;;;;3.07;67.63;100896.34;6109650;28;20347;-77
2022/11/18 11:54:33;;;;;;;4.67;3.60;;;;;;;3.27;66.79;100907.63;6079451;28;20322;-76
2022/11/18 11:58:19;;;;;;;5.80;3.53;;;;;;;3.28;67.24;100898.69;6099743;28;20267;-75
2022/11/18 12:01:55;;;;;;;8.53;6.07;;;;;;;3.39;67.06;100896.25;6106353;28;20335;-76
2022/11/18 12:05:22;;;;;;;4.50;4.03;;;;;;;3.43;66.62;100898.66;6111442;28;20765;-75
2022/11/18 12:08:53;;;;;;;6.07;4.23;;;;;;;3.18;66.62;100903.69;6113450;28;20247;-75
2022/11/18 12:12:37;;;;;;;3.83;3.33;;;;;;;3.21;66.89;100916.84;6093117;28;20743;-76
2022/11/18 12:16:06;;;;;;;4.90;4.23;;;;;;;3.24;66.56;100906.00;6109811;28;20228;-73
2022/11/18 12:19:30;;;;;;;5.50;4.60;;;;;;;3.38;66.91;100906.03;6110060;28;20231;-77
2022/11/18 12:23:21;;;;;;;8.90;4.27;;;;;;;3.36;66.74;100907.13;6088518;28;21095;-72
2022/11/18 12:26:42;;;;;;;6.57;3.83;;;;;;;3.55;66.92;100902.38;6088470;28;20517;-75
2022/11/18 12:30:19;;;;;;;4.40;3.27;;;;;;;3.20;66.65;100916.00;6105821;28;20239;-76
2022/11/18 12:33:42;;;;;;;3.87;3.37;;;;;;;3.25;66.51;100919.22;6104091;28;20421;-75
2022/11/18 12:37:56;;;;;;;6.70;4.10;;;;;;;3.29;66.60;100919.06;6100156;28;20235;-75
2022/11/18 12:45:52;;;;;;;4.23;3.00;;;;;;;4.15;73.21;100913.84;6089930;28;20228;-71
2022/11/18 12:49:50;;;;;;;4.47;3.27;;;;;;;4.17;73.89;100922.59;6103485;28;20495;-72
2022/11/18 12:53:32;;;;;;;5.27;2.93;;;;;;;4.11;67.92;100914.97;6112567;28;20219;-76
2022/11/18 12:56:54;;;;;;;4.57;2.83;;;;;;;3.55;66.33;100923.72;6092559;28;20313;-71
2022/11/18 13:00:18;;;;;;;2.80;2.33;;;;;;;3.38;66.61;100922.03;6103580;29;20232;-74
2022/11/18 13:03:39;;;;;;;4.47;3.40;;;;;;;3.35;66.71;100921.38;6111364;28;20524;-74
2022/11/18 13:07:02;;;;;;;4.17;2.97;;;;;;;3.38;66.54;100924.69;6096994;28;20228;-72
2022/11/18 13:10:27;;;;;;;4.43;4.03;;;;;;;3.38;66.67;100926.53;6107385;28;20231;-74
2022/11/18 13:17:50;;;;;;;6.63;3.37;;;;;;;3.32;65.77;100932.22;6106478;28;20251;-72
2022/11/18 13:17:53;;;;;;;4.90;4.50;;;;;;;3.27;66.31;100931.63;6100725;28;20682;-71
2022/11/18 13:24:59;;;;;;;2.70;2.40;;;;;;;3.21;66.29;100946.16;6103654;28;20256;-74
2022/11/18 13:28:30;;;;;;;2.90;2.60;;;;;;;3.13;66.04;100941.25;6108706;28;20231;-81
2022/11/18 13:32:00;;;;;;;2.47;2.27;;;;;;;3.06;66.40;100958.53;6094526;28;20236;-74
2022/11/18 13:35:26;;;;;;;8.63;2.13;;;;;;;3.11;66.04;100951.13;6114725;28;20228;-77
2022/11/18 13:38:57;;;;;;;3.53;2.13;;;;;;;3.10;66.09;100960.06;6104701;28;20239;-81
2022/11/18 13:42:20;;;;;;;2.63;2.20;;;;;;;3.06;65.49;100965.66;6074142;28;20622;-74
2022/11/18 13:45:42;;;;;;;3.67;1.70;;;;;;;3.18;66.47;100964.97;6104244;28;20239;-80
2022/11/18 13:49:04;;;;;;;3.10;2.37;;;;;;;3.23;65.74;100970.88;6101956;28;20231;-76
2022/11/18 13:52:30;;;;;;;1.50;1.40;;;;;;;3.19;65.37;100974.69;6095671;28;20247;-78
2022/11/18 13:55:57;;;;;;;1.13;1.13;;;;;;;3.13;65.84;100981.19;6097988;28;20235;-76
2022/11/18 13:59:20;;;;;;;4.07;2.33;;;;;;;3.10;64.62;100983.19;6106230;28;20232;-77
2022/11/18 14:02:45;;;;;;;6.43;4.87;;;;;;;3.00;65.43;100981.97;6105993;28;20227;-75
2022/11/18 14:06:06;;;;;;;2.63;2.43;;;;;;;2.93;65.39;100983.25;6101962;28;20278;-79
2022/11/18 14:09:28;;;;;;;2.83;2.37;;;;;;;2.99;65.92;100983.78;6115740;28;20707;-76
2022/11/18 14:12:59;;;;;;;1.67;1.57;;;;;;;2.93;66.46;100988.59;6105643;28;20235;-77
2022/11/18 14:16:32;;;;;;;1.60;1.50;;;;;;;2.97;67.74;100985.66;6106509;28;20239;-74
2022/11/18 14:19:56;;;;;;;2.30;2.10;;;;;;;3.02;67.28;100998.72;6106724;28;20236;-74
2022/11/18 14:23:17;;;;;;;9.13;7.07;;;;;;;2.85;66.49;100997.00;6099831;28;20598;-74
2022/11/18 14:26:39;;;;;;;12.60;8.57;;;;;;;2.75;67.26;101009.09;6109233;28;20247;-75
2022/11/18 14:30:01;;;;;;;11.37;8.57;;;;;;;2.79;67.92;101007.13;6106384;28;20364;-75
2022/11/18 14:33:24;;;;;;;14.40;9.40;;;;;;;2.80;67.50;101016.81;6110468;28;20258;-76
2022/11/18 14:36:45;;;;;;;14.27;8.97;;;;;;;2.76;68.08;101017.91;6108540;28;20236;-73
2022/11/18 14:40:13;;;;;;;13.00;8.80;;;;;;;2.70;68.03;101023.59;6110686;28;20270;-76
2022/11/18 14:43:34;;;;;;;13.73;7.13;;;;;;;2.62;68.15;101032.00;6107194;28;20238;-75
2022/11/18 14:46:58;;;;;;;10.63;6.27;;;;;;;2.59;68.47;101034.81;6093754;28;20761;-74
2022/11/18 14:50:19;;;;;;;8.83;7.30;;;;;;;2.56;68.15;101037.66;6122542;28;20232;-78
2022/11/18 14:53:42;;;;;;;11.93;7.77;;;;;;;2.55;68.63;101035.03;6112456;28;20613;-81
2022/11/18 14:57:04;;;;;;;12.77;9.77;;;;;;;2.48;69.44;101037.19;6100885;28;20594;-77
2022/11/18 15:00:25;;;;;;;29.33;16.67;;;;;;;2.47;69.32;101039.91;6114130;28;20235;-74
2022/11/18 15:03:47;;;;;;;11.13;8.97;;;;;;;2.46;69.42;101039.06;6105929;28;20700;-73
2022/11/18 15:07:12;;;;;;;10.50;7.50;;;;;;;2.43;69.70;101044.53;6101614;28;20247;-74
2022/11/18 15:10:33;;;;;;;11.63;7.00;;;;;;;2.39;69.64;101050.97;6103966;28;20236;-75
2022/11/18 15:13:54;;;;;;;13.40;7.97;;;;;;;2.38;70.30;101051.88;6111276;28;20231;-75
2022/11/18 15:17:18;;;;;;;6.00;3.97;;;;;;;2.31;70.61;101064.69;6091902;28;20761;-75
2022/11/18 15:20:40;;;;;;;9.93;4.90;;;;;;;2.31;70.69;101061.16;6118687;28;20240;-76
2022/11/18 15:24:01;;;;;;;12.23;9.17;;;;;;;2.27;71.02;101063.09;6106152;28;20235;-76
2022/11/18 15:27:21;;;;;;;7.53;5.73;;;;;;;2.24;71.48;101073.91;6100867;28;20310;-74
2022/11/18 15:30:42;;;;;;;3.70;3.40;;;;;;;2.23;71.15;101072.16;6104716;28;20602;-74
2022/11/18 15:34:03;;;;;;;6.87;5.90;;;;;;;2.19;71.47;101070.59;6109792;28;20524;-74
2022/11/18 15:37:25;;;;;;;20.93;10.20;;;;;;;2.17;71.53;101084.94;6092721;28;20248;-73
2022/11/18 15:40:46;;;;;;;34.07;23.43;;;;;;;2.19;72.06;101080.41;6104751;28;20251;-74
2022/11/18 15:44:09;;;;;;;40.17;27.57;;;;;;;2.11;72.26;101088.75;6085634;28;20232;-74
2022/11/18 15:47:30;;;;;;;17.70;13.43;;;;;;;2.14;72.52;101091.28;6085580;28;20539;-74
2022/11/18 15:50:51;;;;;;;20.03;11.70;;;;;;;2.05;73.06;101089.06;6093222;28;20235;-75
2022/11/18 15:54:13;;;;;;;43.07;24.07;;;;;;;2.03;72.90;101100.72;6089482;28;21827;-74
2022/11/18 15:57:34;;;;;;;39.13;23.87;;;;;;;2.01;73.52;101108.75;6095650;28;21614;-78
2022/11/18 16:00:55;;;;;;;22.17;16.67;;;;;;;2.07;73.83;101108.47;6105170;28;20244;-75
2022/11/18 16:04:17;;;;;;;6.77;6.17;;;;;;;2.00;73.83;101107.03;6109520;28;20262;-75
2022/11/18 16:07:38;;;;;;;3.27;2.53;;;;;;;1.96;73.92;101108.13;6097620;28;20236;-74
2022/11/18 16:15:42;;;;;;;39.87;24.23;;;;;;;1.82;74.21;101118.59;6035000;29;20237;-75
2022/11/18 16:18:36;;;;;;;21.70;16.13;;;;;;;1.69;74.86;101119.28;6061181;28;20238;-74
2022/11/18 16:21:57;;;;;;;49.73;29.30;;;;;;;1.68;75.81;101125.50;6105812;28;20231;-74
2022/11/18 16:25:22;;;;;;;46.17;28.60;;;;;;;1.62;76.23;101134.63;6119234;28;20259;-74
2022/11/18 16:28:44;;;;;;;51.13;29.87;;;;;;;1.61;76.41;101143.53;6118164;28;20231;-74
2022/11/18 16:32:13;;;;;;;28.23;16.47;;;;;;;1.65;76.29;101144.25;6093105;28;20235;-75
2022/11/18 16:35:34;;;;;;;9.33;6.37;;;;;;;1.63;76.11;101162.06;6124379;28;20609;-75
2022/11/18 16:38:55;;;;;;;4.57;3.33;;;;;;;1.56;76.05;101162.34;6114548;28;20822;-74
2022/11/18 16:42:15;;;;;;;4.17;3.77;;;;;;;1.52;76.25;101155.44;6101998;28;20235;-75
2022/11/18 16:45:38;;;;;;;2.53;2.43;;;;;;;1.51;76.10;101164.38;6114475;28;20799;-74